Time;durP1;ratioP1;P1;durP2;ratioP2;P2;SDS_P1;SDS_P2;PMS_P1;PMS_P2;Temp;Humidity;BMP_temperature;BMP_pressure;BME280_temperature;BME280_humidity;BME280_pressure;Samples;Min_cycle;Max_cycle;Signal;HPM_P1;HPM_P2
2023/08/03 00:02:55;;;;;;;;;21.75;19.50;;;;;;;;6489199;31;9577;-55
2023/08/03 00:08:58;;;;;;;;;22.50;19.00;;;;;;;;6489764;39;8914;-55
2023/08/03 00:15:01;;;;;;;;;19.75;18.00;;;;;;;;6490762;31;8997;-54
2023/08/03 00:21:04;;;;;;;;;17.00;17.00;;;;;;;;6489587;31;8894;-54
2023/08/03 00:27:07;;;;;;;;;19.00;18.00;;;;;;;;6489671;31;9662;-54
2023/08/03 00:33:10;;;;;;;;;16.75;16.25;;;;;;;;6488765;31;8830;-53
2023/08/03 00:39:12;;;;;;;;;18.25;16.25;;;;;;;;6488988;46;8897;-55
2023/08/03 00:45:14;;;;;;;;;21.25;20.50;;;;;;;;6488102;39;8938;-55
2023/08/03 00:51:16;;;;;;;;;19.50;18.75;;;;;;;;6489014;39;8838;-52
2023/08/03 00:57:20;;;;;;;;;18.75;18.00;;;;;;;;6499055;36;127361;-53
2023/08/03 01:03:22;;;;;;;;;20.75;18.50;;;;;;;;6488358;39;9558;-51
2023/08/03 01:09:24;;;;;;;;;19.25;17.25;;;;;;;;6489449;46;9503;-56
2023/08/03 01:15:27;;;;;;;;;18.50;17.25;;;;;;;;6489394;39;9558;-52
2023/08/03 01:21:32;;;;;;;;;19.67;18.67;;;;;;;;6489545;31;8947;-57
2023/08/03 01:27:35;;;;;;;;;19.33;17.67;;;;;;;;6489074;39;8949;-54
2023/08/03 01:33:38;;;;;;;;;17.75;15.00;;;;;;;;6488841;46;8967;-56
2023/08/03 01:39:45;;;;;;;;;20.25;19.00;;;;;;;;6487938;39;8869;-54
2023/08/03 01:45:49;;;;;;;;;19.25;17.25;;;;;;;;6488769;39;8909;-53
2023/08/03 01:51:54;;;;;;;;;18.00;17.25;;;;;;;;6487697;46;8900;-53
2023/08/03 01:57:56;;;;;;;;;23.50;20.50;;;;;;;;6488694;46;8941;-52
2023/08/03 02:04:00;;;;;;;;;19.67;19.67;;;;;;;;6488119;39;8881;-54
2023/08/03 02:10:04;;;;;;;;;23.50;22.50;;;;;;;;6487263;46;8837;-53
2023/08/03 02:16:10;;;;;;;;;21.75;20.75;;;;;;;;6489100;31;9037;-53
2023/08/03 02:22:26;;;;;;;;;20.75;20.50;;;;;;;;6488521;31;8955;-53
2023/08/03 02:28:30;;;;;;;;;22.33;22.33;;;;;;;;6489303;31;8904;-55
2023/08/03 02:34:33;;;;;;;;;24.33;20.33;;;;;;;;6486597;46;8881;-53
2023/08/03 02:40:36;;;;;;;;;29.67;26.67;;;;;;;;6488809;31;8837;-51
2023/08/03 02:46:40;;;;;;;;;25.33;23.67;;;;;;;;6488853;31;8900;-54
2023/08/03 02:52:45;;;;;;;;;27.00;24.33;;;;;;;;6487490;46;9039;-55
2023/08/03 02:58:48;;;;;;;;;26.33;26.33;;;;;;;;6488205;46;8943;-54
2023/08/03 03:05:01;;;;;;;;;30.67;28.67;;;;;;;;6488238;39;8928;-53
2023/08/03 03:11:06;;;;;;;;;27.00;26.67;;;;;;;;6492624;39;8884;-55
2023/08/03 03:17:10;;;;;;;;;28.33;25.00;;;;;;;;6491244;31;8856;-55
2023/08/03 03:23:13;;;;;;;;;32.00;31.00;;;;;;;;6490988;31;8844;-54
2023/08/03 03:29:15;;;;;;;;;27.00;26.00;;;;;;;;6491678;46;8939;-55
2023/08/03 03:35:17;;;;;;;;;27.33;26.67;;;;;;;;6491332;46;8843;-51
2023/08/03 03:41:20;;;;;;;;;27.33;25.00;;;;;;;;6492228;46;8966;-53
2023/08/03 03:47:23;;;;;;;;;24.00;22.67;;;;;;;;6491573;31;9623;-54
2023/08/03 03:53:32;;;;;;;;;28.33;25.67;;;;;;;;6492141;39;8972;-54
2023/08/03 03:59:41;;;;;;;;;25.33;25.33;;;;;;;;6489774;39;8939;-55
2023/08/03 04:05:44;;;;;;;;;29.67;25.67;;;;;;;;6469218;39;9086;-55
2023/08/03 04:11:47;;;;;;;;;30.33;26.67;;;;;;;;6494728;39;8862;-56
2023/08/03 04:17:52;;;;;;;;;28.00;25.33;;;;;;;;6493817;31;8928;-55
